Aérodrome :
LOGIN :

S'inscrire | Disclaimer

   EN    FR    IT 

 










Légende :    VFR   VFR Marginal   IFR   IFR Intensif   IFR Très Intensif
Visi : 
Plafond : 
>= 8 km
>= 3000ft
5 à 8 km
1000 à 3000 ft
1500m à 5 km
500 à 1000 ft
800 à 1500m
200 à 500 ft
< 800m
< 200 ft
Symboles :   Orages  Brouillard  Fortes neiges  Fortes précipitations  Vent > 20 kt
SIGMETs :   Divers  Orages  Givrage  Turbulence  Onde Orograph.  Cendres Volcan.






- Altitude de l'aérodrome : 3368 ft


LSGC - Les Eplatures

DERNIER METAR :
  • 281220Z 35007KT 280V050 9999 SCT038 10/01 Q1016

METARs EXPIRÉS :
  • 281150Z 04005KT 340V100 9999 SCT042 11/03 Q1016
  • 281120Z 05007KT 350V090 9999 SCT042 11/02 Q1016
  • 281050Z 03006KT 310V080 9999 SCT042 11/02 Q1016
  • 281020Z 07007KT 340V120 9999 BKN042 11/02 Q1016
  • 280950Z 05006KT 9999 BKN041 10/03 Q1016

TAF TAF LSGC
Valide du 28 à 12h jusqu'au 28 à 21h UTC


281125Z 2812/2821 03007KT 9999 SCT040



MET'MAP, la Météo Aéronautique d'un coup d'oeil ! - Copyright ORBIFLY Décembre 2007 - Disclaimer

ORBIFLY MET'MAP TEAM :

Programmation & Développement : Alexandra Zaïnal
Sur une idée originale de : Baudouin d'Aumeries
Assistance à la programmation : Marc-Olivier Méhu
Soutien technique & logistique : Manuel Goepfert

Contact : metmap@orbifly.com




SOURCES & CREDITS :

   NOAA